Terminal Aerodrome Forecast
Issued by NWS La Crosse, WI

Home | Current Version | Previous Version | Text Only | Print | Product List | Glossary On
Versions: 1 2 3 4 5 6 7 8 9 10 11 12 13 14 15 16 17 18 19 20 21 22 23 24 25 26 27 28 29 30 31 32 33 34 35 36
000
FTUS43 KARX 021126
TAFRST
TAF
KRST 021126Z 0212/0312 32006KT P6SM SCT250
     FM021800 19006KT P6SM BKN200
     FM030000 18009KT P6SM BKN100
     FM030300 17014G20KT P6SM BKN030
     FM030900 17015KT 1SM -SN BKN006=

USA.gov is the U.S. government's official web portal to all federal, state and local government web resources and services.